createdAt,value
2019-05-03T00:04:14.533Z,63.9
2019-05-03T00:09:19.492Z,63.9
2019-05-03T00:14:24.513Z,63.7
2019-05-03T00:19:30.087Z,63.9
2019-05-03T00:24:34.834Z,63.8
2019-05-03T00:29:41.747Z,63.8
2019-05-03T00:34:49.199Z,64.1
2019-05-03T00:39:55.078Z,64.6
2019-05-03T00:45:02.108Z,64.6
2019-05-03T00:50:07.772Z,64.9
2019-05-03T00:55:22.991Z,66
2019-05-03T01:00:18.805Z,66.1
2019-05-03T01:05:25.401Z,66.2
2019-05-03T01:10:30.540Z,66.3
2019-05-03T01:15:35.820Z,66.6
2019-05-03T01:20:43.631Z,66.6
2019-05-03T01:25:48.833Z,66.6
2019-05-03T01:30:54.333Z,65.9
2019-05-03T01:35:59.428Z,65.5
2019-05-03T01:41:04.610Z,65
2019-05-03T01:46:08.296Z,64.2
2019-05-03T01:51:14.345Z,61.8
2019-05-03T01:56:19.633Z,61.7
2019-05-03T02:01:28.554Z,60.9
2019-05-03T02:06:34.457Z,60.3
2019-05-03T02:11:41.669Z,59.7
2019-05-03T02:16:47.240Z,60
2019-05-03T02:21:54.158Z,59.7
2019-05-03T02:26:57.800Z,59.6
2019-05-03T02:32:05.820Z,60.3
2019-05-03T02:37:13.581Z,60.3
2019-05-03T02:42:18.994Z,60.4
2019-05-03T02:47:26.311Z,60.4
2019-05-03T02:52:32.158Z,60.3
2019-05-03T02:57:37.841Z,60.2
2019-05-03T03:02:41.790Z,60.2
2019-05-03T03:07:48.846Z,59.9
2019-05-03T03:12:57.045Z,59.8
2019-05-03T03:18:02.137Z,59.8
2019-05-03T03:23:08.908Z,59.7
2019-05-03T03:28:16.648Z,59.7
2019-05-03T03:33:21.940Z,59.6
2019-05-03T03:38:28.878Z,59.1
2019-05-03T03:43:38.353Z,59.2
2019-05-03T03:48:48.050Z,58.7
2019-05-03T03:53:56.455Z,58.7
2019-05-03T03:59:02.497Z,58.2
2019-05-03T04:04:08.405Z,58.2
2019-05-03T04:09:12.187Z,58.2
2019-05-03T04:14:18.837Z,57.8
2019-05-03T04:19:27.016Z,57.9
2019-05-03T04:24:32.193Z,57.9
2019-05-03T04:29:38.332Z,57.4
2019-05-03T04:34:46.452Z,57.4
2019-05-03T04:39:51.948Z,56.3
2019-05-03T04:44:58.775Z,55.8
2019-05-03T04:50:06.377Z,55.7
2019-05-03T04:55:11.514Z,55.4
2019-05-03T05:00:18.674Z,53
2019-05-03T05:05:29.272Z,53
2019-05-03T05:10:27.675Z,51.4
2019-05-03T05:15:35.172Z,51.5
2019-05-03T05:20:40.854Z,51.3
2019-05-03T05:25:49.454Z,53
2019-05-03T05:30:56.427Z,53.2
2019-05-03T05:36:02.122Z,53.1
2019-05-03T05:41:09.282Z,50.9
2019-05-03T05:46:16.506Z,50.7
2019-05-03T05:51:21.602Z,50
2019-05-03T05:56:27.760Z,50.6
2019-05-03T06:01:35.186Z,50.6
2019-05-03T06:06:40.880Z,49.7
2019-05-03T06:11:48.050Z,49.7
2019-05-03T06:16:55.273Z,49.6
2019-05-03T06:27:05.861Z,47.9
2019-05-03T06:32:10.862Z,47.8
2019-05-03T06:37:16.640Z,49.8
2019-05-03T06:42:26.359Z,49.6
2019-05-03T06:47:21.484Z,49.5
2019-05-03T06:52:31.263Z,47.7
2019-05-03T06:57:28.013Z,48.1
2019-05-03T07:02:32.848Z,47.4
2019-05-03T07:07:37.860Z,46.1
2019-05-03T07:12:45.188Z,48.2
2019-05-03T07:17:47.681Z,49.2
2019-05-03T07:22:52.674Z,49.1
2019-05-03T07:27:58.368Z,47.2
2019-05-03T07:33:05.556Z,47.3
2019-05-03T07:38:10.893Z,46.8
2019-05-03T07:43:20.547Z,45.5
2019-05-03T07:48:28.027Z,45.2
2019-05-03T07:53:34.659Z,45.2
2019-05-03T07:58:40.184Z,44
2019-05-03T08:03:47.818Z,44.2
2019-05-03T08:08:55.369Z,43.5
2019-05-03T08:14:00.588Z,44.4
2019-05-03T08:19:07.565Z,46.6
2019-05-03T08:24:17.430Z,47.8
2019-05-03T08:29:21.470Z,46.7
2019-05-03T08:34:17.992Z,46.1
2019-05-03T08:39:25.166Z,46.1
2019-05-03T08:44:31.480Z,46.9
2019-05-03T08:49:37.512Z,46.4
2019-05-03T08:54:44.733Z,46.4
2019-05-03T08:59:50.137Z,48.8
2019-05-03T09:04:57.650Z,48.6
2019-05-03T09:10:02.848Z,48.6
2019-05-03T09:15:08.208Z,48.2
2019-05-03T09:20:15.418Z,45.3
2019-05-03T09:25:20.796Z,47.2
2019-05-03T09:30:27.935Z,50.6
2019-05-03T09:35:38.324Z,48.6
2019-05-03T09:40:36.110Z,48.5
2019-05-03T09:45:41.276Z,48.9
2019-05-03T09:50:47.891Z,46.6
2019-05-03T09:55:53.055Z,46.5
2019-05-03T10:00:58.469Z,40
2019-05-03T10:06:03.680Z,37.8
2019-05-03T10:11:09.133Z,39
2019-05-03T10:16:16.602Z,39.1
2019-05-03T10:21:21.946Z,36.7
2019-05-03T10:26:27.029Z,35.4
2019-05-03T10:31:32.283Z,31.8
2019-05-03T10:36:38.353Z,30.1
2019-05-03T10:41:46.086Z,30.4
2019-05-03T10:46:51.309Z,33.6
2019-05-03T10:51:57.584Z,38.9
2019-05-03T10:57:06.167Z,41.1
2019-05-03T11:02:11.490Z,41.1
2019-05-03T11:07:17.635Z,43.9
2019-05-03T11:12:22.922Z,43.8
2019-05-03T11:17:28.167Z,41.1
2019-05-03T11:22:31.879Z,42.3
2019-05-03T11:27:38.058Z,42.2
2019-05-03T11:32:59.916Z,39.5
2019-05-03T11:38:30.633Z,31.9
2019-05-03T11:43:44.456Z,28.4
2019-05-03T11:49:27.726Z,26.4
2019-05-03T11:53:35.164Z,29.1
2019-05-03T11:58:37.034Z,30
2019-05-03T12:03:25.096Z,29.9
2019-05-03T12:08:29.783Z,32.6
2019-05-03T12:13:33.707Z,37.9
2019-05-03T12:18:44.732Z,40.1
2019-05-03T12:24:16.638Z,43
2019-05-03T12:29:04.467Z,44.2
2019-05-03T12:33:42.335Z,41.7
2019-05-03T12:38:48.515Z,41.4
2019-05-03T12:54:35.452Z,40.7
2019-05-03T12:59:44.446Z,40.9
2019-05-03T13:05:11.439Z,42.9
2019-05-03T13:10:34.330Z,45.9
2019-05-03T13:14:31.558Z,55.9
2019-05-03T13:19:42.372Z,62.2
2019-05-03T13:25:29.978Z,60.9
2019-05-03T13:50:44.567Z,66
2019-05-03T13:55:41.734Z,66.7
2019-05-03T14:00:39.585Z,66
2019-05-03T14:10:27.258Z,67
2019-05-03T14:15:57.285Z,70.4
2019-05-03T14:20:45.826Z,75.9
2019-05-03T14:25:27.296Z,82
2019-05-03T14:30:34.183Z,82
2019-05-03T14:35:39.678Z,81.7
2019-05-03T14:40:48.264Z,72.3
2019-05-03T14:45:55.781Z,72.3
2019-05-03T14:51:01.046Z,70.4
2019-05-03T14:56:14.519Z,72.1
2019-05-03T15:01:11.116Z,72.8
2019-05-03T15:06:18.173Z,74
2019-05-03T15:11:30.436Z,74
2019-05-03T15:16:27.888Z,74.4
2019-05-03T15:21:34.619Z,74.3
2019-05-03T15:26:40.026Z,74.1
2019-05-03T15:31:49.830Z,70.5
2019-05-03T15:36:59.426Z,71.6
2019-05-03T15:42:06.986Z,71
2019-05-03T15:47:14.765Z,70.1
2019-05-03T15:52:20.032Z,70
2019-05-03T15:57:27.769Z,69.8
2019-05-03T16:02:32.854Z,70
2019-05-03T16:07:38.173Z,69.6
2019-05-03T16:12:44.902Z,69.8
2019-05-03T16:17:48.819Z,68.9
2019-05-03T16:22:56.204Z,71.7
2019-05-03T16:28:04.758Z,71.7
2019-05-03T16:33:22.350Z,71.8
2019-05-03T16:38:19.173Z,72.6
2019-05-03T16:43:28.527Z,72.6
2019-05-03T16:48:35.289Z,74.2
2019-05-03T16:53:37.760Z,74.3
2019-05-03T16:58:44.458Z,74
2019-05-03T17:03:48.291Z,75
2019-05-03T17:08:50.173Z,75
2019-05-03T17:13:51.964Z,75.1
2019-05-03T17:18:57.544Z,74.2
2019-05-03T17:24:04.328Z,74.6
2019-05-03T17:29:11.116Z,75
2019-05-03T17:34:17.187Z,76.6
2019-05-03T17:39:17.576Z,76.6
2019-05-03T17:44:24.150Z,77.7
2019-05-03T17:49:32.601Z,77.7
2019-05-03T17:54:36.773Z,79.6
2019-05-03T17:59:41.832Z,79.6
2019-05-03T18:04:50.233Z,81.6
2019-05-03T18:10:00.476Z,82.5
2019-05-03T18:15:10.286Z,82.7
2019-05-03T18:20:17.681Z,82.3
2019-05-03T18:25:24.527Z,82.4
2019-05-03T18:30:30.220Z,82.8
2019-05-03T18:35:38.225Z,83.9
2019-05-03T18:40:45.613Z,84.1
2019-05-03T18:45:50.590Z,84.7
2019-05-03T18:50:57.301Z,85.1
2019-05-03T18:56:02.249Z,85.1
2019-05-03T19:01:05.339Z,85.1
2019-05-03T19:06:10.436Z,84.7
2019-05-03T19:11:17.670Z,85
2019-05-03T19:16:24.157Z,85.1
2019-05-03T19:21:29.799Z,85.9
2019-05-03T19:26:37.852Z,88.1
2019-05-03T19:31:44.708Z,88.1
2019-05-03T19:36:49.914Z,88.6
2019-05-03T19:41:57.005Z,89.6
2019-05-03T19:47:02.135Z,89.6
2019-05-03T19:52:07.921Z,90.1
2019-05-03T19:53:30.789Z,90.1
2019-05-03T19:58:37.875Z,89.8
2019-05-03T20:03:43.149Z,89.2
2019-05-03T20:08:53.171Z,89
2019-05-03T20:13:58.220Z,89.5
2019-05-03T20:19:22.047Z,91.1
2019-05-03T20:24:08.240Z,91.5
2019-05-03T20:29:14.725Z,91.4
2019-05-03T20:34:19.976Z,91.8
2019-05-03T20:39:27.174Z,92.3
2019-05-03T20:44:32.807Z,92.1
2019-05-03T20:49:38.075Z,92.2
2019-05-03T20:54:45.652Z,91.7
2019-05-03T20:59:56.228Z,92.1
2019-05-03T21:04:51.371Z,92.1
2019-05-03T21:09:57.832Z,93
2019-05-03T21:15:05.658Z,92.6
2019-05-03T21:20:10.857Z,92.7
2019-05-03T21:25:16.062Z,92.9
2019-05-03T21:30:21.206Z,93
2019-05-03T21:35:45.108Z,92.7
2019-05-03T21:40:30.128Z,92.6
2019-05-03T21:45:35.321Z,92.6
2019-05-03T21:50:38.877Z,92
2019-05-03T21:55:46.379Z,91.2
2019-05-03T22:00:51.511Z,91.2
2019-05-03T22:06:00.187Z,90.9
2019-05-03T22:11:07.190Z,91
2019-05-03T22:16:12.471Z,91
2019-05-03T22:21:17.489Z,91.1
2019-05-03T22:26:24.469Z,91.1
2019-05-03T22:31:29.891Z,91.3
2019-05-03T22:36:36.851Z,91.4
2019-05-03T22:41:41.717Z,91.4
2019-05-03T22:46:47.262Z,91.8
2019-05-03T22:51:52.160Z,91.8
2019-05-03T22:56:58.295Z,92.4
2019-05-03T23:02:03.377Z,92
2019-05-03T23:07:08.581Z,92.2
2019-05-03T23:12:13.888Z,92.1
2019-05-03T23:17:19.369Z,92.1
2019-05-03T23:22:26.487Z,92.2
2019-05-03T23:27:31.876Z,92.2
2019-05-03T23:32:37.747Z,92.4
2019-05-03T23:37:44.813Z,92.4
2019-05-03T23:42:49.959Z,92.6
2019-05-03T23:47:55.424Z,92.7
2019-05-03T23:53:00.678Z,92.7
2019-05-03T23:58:07.430Z,92.8
